»·PEaware :: QXE2819 KPDX-KSEA

QXE2819 :: KPDX-KSEA

FLIGHT INFORMATION

Flight Status: Arrived
Operator:
Horizon Air
More flights by this operator :: More flights under this callsign
Pilot: Adlai G. (28854)
Aircraft: DEHAVILLAND DASH 8 400
(DH8D)
More flights by this aircraft type
Origin: KPDX Portland Intl
United States
Destination: KSEA Seattle-Tacoma Intl
United States
More flights between these airports :: More routes between these airports
Route: COUGA KRIEG HAWKZ7
File this flight plan on PilotEdge
Remarks:
Altitude:
(Current/Filed)
16,000ft
Speed:
(Current/Filed)
357kts
Departed: 17-May-20 12:32 PM
Arrived: 17-May-20 01:06 PM
Distance/Time
Traveled:
112nm/0:34
Distance/Time
To Go:
Arrived

Flight Plot

Page will automatically refresh every two minutes.

Flight plan parsing failed; only flown route is shown


Map Options




Map Legend


Flown Route
Filed Route
Departure Airport
Arrival Airport
Navaid (VOR, NDB)
Fix

Horizontal Profiles

Position Reports

Time Latitude Longitude Heading Altitude Ground
Speed
17-May-20 11:12 45.590588 -122.598687 208 37ft 0kts
17-May-20 11:13 45.590588 -122.598688 208 37ft 0kts
17-May-20 11:15 45.590588 -122.598688 208 37ft 0kts
17-May-20 11:15 45.590588 -122.598688 208 37ft 0kts
17-May-20 11:16 45.590588 -122.598688 208 37ft 0kts
17-May-20 11:17 45.590588 -122.598688 208 37ft 0kts
17-May-20 11:18 45.590588 -122.598688 208 37ft 0kts
17-May-20 11:19 45.590588 -122.598688 208 37ft 0kts
17-May-20 11:20 45.590588 -122.598688 208 37ft 0kts
17-May-20 11:21 45.590588 -122.598688 208 37ft 0kts
17-May-20 11:22 45.590588 -122.598688 208 37ft 0kts
17-May-20 11:23 45.590588 -122.598688 208 37ft 0kts
17-May-20 11:24 45.590588 -122.598688 208 37ft 0kts
17-May-20 11:25 45.590588 -122.598688 208 37ft 0kts
17-May-20 11:26 45.590588 -122.598688 208 37ft 0kts
17-May-20 11:27 45.590588 -122.598688 208 37ft 0kts
17-May-20 11:28 45.590588 -122.598688 208 37ft 0kts
17-May-20 11:29 45.590588 -122.598688 208 37ft 0kts
17-May-20 11:30 45.590588 -122.598688 208 37ft 0kts
17-May-20 11:31 45.590588 -122.598688 208 37ft 0kts
17-May-20 11:32 45.590588 -122.598688 208 37ft 0kts
17-May-20 11:33 45.590588 -122.598688 208 37ft 0kts
17-May-20 11:34 45.590588 -122.598688 208 37ft 0kts
17-May-20 11:35 45.590588 -122.598688 208 37ft 0kts
17-May-20 11:36 45.590588 -122.598688 208 37ft 0kts
17-May-20 11:37 45.590588 -122.598688 208 37ft 0kts
17-May-20 11:38 45.590588 -122.598688 208 37ft 0kts
17-May-20 11:39 45.590588 -122.598688 208 37ft 0kts
17-May-20 11:40 45.590588 -122.598688 208 37ft 0kts
17-May-20 11:41 45.590588 -122.598688 208 37ft 0kts
17-May-20 11:42 45.590588 -122.598688 208 37ft 0kts
17-May-20 11:43 45.590588 -122.598688 208 37ft 0kts
17-May-20 11:44 45.590588 -122.598688 208 37ft 0kts
17-May-20 11:45 45.590588 -122.598688 208 37ft 0kts
17-May-20 11:46 45.590588 -122.598688 208 37ft 0kts
17-May-20 11:47 45.590588 -122.598688 208 37ft 0kts
17-May-20 11:48 45.590588 -122.598688 208 37ft 0kts
17-May-20 11:49 45.590588 -122.598688 208 37ft 0kts
17-May-20 11:50 45.590588 -122.598688 208 37ft 0kts
17-May-20 11:51 45.590588 -122.598688 208 37ft 0kts
17-May-20 11:52 45.590588 -122.598688 208 37ft 0kts
17-May-20 11:53 45.590588 -122.598688 208 37ft 0kts
17-May-20 11:54 45.590588 -122.598688 208 37ft 0kts
17-May-20 11:55 45.590588 -122.598688 208 37ft 0kts
17-May-20 11:56 45.590588 -122.598688 208 37ft 0kts
17-May-20 11:57 45.590588 -122.598688 208 37ft 0kts
17-May-20 11:58 45.590588 -122.598688 208 37ft 0kts
17-May-20 11:59 45.590588 -122.598688 208 37ft 0kts
17-May-20 12:00 45.590588 -122.598688 208 37ft 0kts
17-May-20 12:01 45.590588 -122.598688 208 37ft 0kts
17-May-20 12:02 45.590588 -122.598688 208 37ft 0kts
17-May-20 12:03 45.590588 -122.598688 208 37ft 0kts
17-May-20 12:04 45.590588 -122.598688 208 37ft 0kts
17-May-20 12:05 45.590588 -122.598688 208 37ft 0kts
17-May-20 12:06 45.590588 -122.598688 208 37ft 0kts
17-May-20 12:07 45.590588 -122.598688 208 37ft 0kts
17-May-20 12:08 45.590588 -122.598688 208 37ft 0kts
17-May-20 12:09 45.590588 -122.598688 208 37ft 0kts
17-May-20 12:10 45.590588 -122.598688 208 37ft 0kts
17-May-20 12:11 45.590588 -122.598688 208 37ft 0kts
17-May-20 12:12 45.590588 -122.598688 208 37ft 0kts
17-May-20 12:13 45.590588 -122.598688 208 37ft 0kts
17-May-20 12:14 45.590588 -122.598688 208 37ft 0kts
17-May-20 12:15 45.590588 -122.598688 208 37ft 0kts
17-May-20 12:16 45.590588 -122.598688 208 37ft 0kts
17-May-20 12:17 45.590588 -122.598688 208 37ft 0kts
17-May-20 12:18 45.590588 -122.598688 208 37ft 0kts
17-May-20 12:19 45.590588 -122.598688 208 37ft 0kts
17-May-20 12:20 45.590588 -122.598688 208 37ft 0kts
17-May-20 12:21 45.590588 -122.598688 208 37ft 0kts
17-May-20 12:22 45.590588 -122.598688 208 37ft 0kts
17-May-20 12:23 45.590588 -122.598688 208 37ft 0kts
17-May-20 12:24 45.590950 -122.598288 234 37ft 2kts
17-May-20 12:25 45.590962 -122.597755 299 37ft 0kts
17-May-20 12:26 45.590962 -122.597755 299 37ft 0kts
17-May-20 12:27 45.590962 -122.597755 299 37ft 0kts
17-May-20 12:28 45.591066 -122.598017 299 37ft 2kts
17-May-20 12:29 45.592291 -122.598228 49 37ft 11kts
17-May-20 12:30 45.594040 -122.595980 35 37ft 6kts
17-May-20 12:31 45.592657 -122.590109 118 37ft 99kts
17-May-20 12:32 45.570323 -122.536963 120 2386ft 180kts
17-May-20 12:33 45.556964 -122.466933 58 5526ft 208kts
17-May-20 12:34 45.611300 -122.451652 348 8221ft 223kts
17-May-20 12:35 45.673110 -122.475870 343 10276ft 250kts
17-May-20 12:36 45.743406 -122.504615 340 12089ft 268kts
17-May-20 12:37 45.814924 -122.538433 338 14051ft 268kts
17-May-20 12:38 45.887070 -122.573327 336 15596ft 276kts
17-May-20 12:39 45.964287 -122.613297 337 15992ft 319kts
17-May-20 12:40 46.051762 -122.656941 337 15999ft 344kts
17-May-20 12:41 46.147075 -122.689960 352 16000ft 362kts
17-May-20 12:42 46.247007 -122.706093 349 15997ft 357kts
17-May-20 12:43 46.345362 -122.725255 357 16000ft 358kts
17-May-20 12:44 46.444801 -122.726880 358 16001ft 359kts
17-May-20 12:46 46.544910 -122.730236 358 16001ft 360kts
17-May-20 12:47 46.644781 -122.733809 358 16001ft 360kts
17-May-20 12:48 46.744830 -122.737387 358 15976ft 360kts
17-May-20 12:49 46.832953 -122.684191 42 14344ft 346kts
17-May-20 12:50 46.906069 -122.596987 39 12691ft 326kts
17-May-20 12:51 46.982962 -122.541075 16 12226ft 311kts
17-May-20 12:52 47.066110 -122.506252 17 12035ft 312kts
17-May-20 12:53 47.150238 -122.486723 7 10726ft 299kts
17-May-20 12:54 47.231112 -122.473557 6 9494ft 281kts
17-May-20 12:55 47.306132 -122.462322 6 8593ft 270kts
17-May-20 12:56 47.380341 -122.453958 1 7551ft 265kts
17-May-20 12:57 47.451194 -122.455736 1 6116ft 238kts
17-May-20 12:58 47.515763 -122.454328 0 4911ft 233kts
17-May-20 12:59 47.579440 -122.453274 0 3709ft 226kts
17-May-20 13:00 47.638394 -122.437677 50 3023ft 217kts
17-May-20 13:01 47.636564 -122.355803 124 3007ft 204kts
17-May-20 13:01 47.601598 -122.310047 171 2584ft 210kts
17-May-20 13:03 47.546058 -122.306650 182 2069ft 131kts
17-May-20 13:03 47.517562 -122.307091 182 1474ft 119kts
17-May-20 13:04 47.485027 -122.307401 181 888ft 121kts
17-May-20 13:06 47.453209 -122.307787 166 440ft 22kts
17-May-20 13:06 47.451862 -122.306501 142 440ft 4kts
17-May-20 13:07 47.447793 -122.306283 180 440ft 17kts
17-May-20 13:08 47.445161 -122.305025 53 440ft 5kts
17-May-20 13:09 47.445411 -122.304568 50 440ft 0kts
17-May-20 13:10 47.445411 -122.304568 50 440ft 0kts
17-May-20 13:11 47.445411 -122.304568 50 440ft 0kts
17-May-20 13:12 47.445411 -122.304568 50 440ft 0kts
17-May-20 13:13 47.445411 -122.304568 50 440ft 0kts
17-May-20 13:14 47.445411 -122.304568 50 440ft 0kts

Navigation Log

Ident Type
Flight plan parsing failed, navigation log unavailable